Time;durP1;ratioP1;P1;durP2;ratioP2;P2;SDS_P1;SDS_P2;PMS_P1;PMS_P2;Temp;Humidity;BMP_temperature;BMP_pressure;BME280_temperature;BME280_humidity;BME280_pressure;Samples;Min_cycle;Max_cycle;Signal;HPM_P1;HPM_P2
2022/09/12 00:01:57;;;;;;;10.27;7.93;;;16.60;99.90;;;;;;4971358;28;20511;-36
2022/09/12 00:04:23;;;;;;;9.65;7.40;;;16.60;99.90;;;;;;4973170;28;20039;-36
2022/09/12 00:06:49;;;;;;;9.55;7.85;;;16.50;99.90;;;;;;4972546;28;20039;-35
2022/09/12 00:09:15;;;;;;;10.45;8.68;;;16.50;99.90;;;;;;4973161;28;20477;-35
2022/09/12 00:11:44;;;;;;;9.93;8.18;;;16.50;99.90;;;;;;4972259;28;20051;-35
2022/09/12 00:14:13;;;;;;;10.65;8.35;;;16.50;99.90;;;;;;4972351;28;20073;-36
2022/09/12 00:16:39;;;;;;;11.85;8.88;;;16.50;99.90;;;;;;4970739;28;20061;-35
2022/09/12 00:19:06;;;;;;;10.27;7.60;;;16.50;99.90;;;;;;4968613;28;20038;-35
2022/09/12 00:21:34;;;;;;;12.25;8.82;;;16.40;99.90;;;;;;4971571;28;20039;-36
2022/09/12 00:24:00;;;;;;;11.73;8.98;;;16.40;99.90;;;;;;4970756;28;20050;-36
2022/09/12 00:26:25;;;;;;;12.82;8.98;;;16.40;99.90;;;;;;4967703;28;20074;-35
2022/09/12 00:28:51;;;;;;;12.95;9.10;;;16.40;99.90;;;;;;4948875;28;20054;-36
2022/09/12 00:31:20;;;;;;;13.38;9.60;;;16.40;99.90;;;;;;4969262;28;20548;-36
2022/09/12 00:33:46;;;;;;;13.00;10.20;;;16.30;99.90;;;;;;4970405;28;20143;-35
2022/09/12 00:36:15;;;;;;;12.18;9.50;;;16.30;99.90;;;;;;4969838;28;20380;-35
2022/09/12 00:38:42;;;;;;;13.10;8.90;;;16.40;99.90;;;;;;4969017;28;20051;-36
2022/09/12 00:41:17;;;;;;;10.43;8.98;;;16.30;99.90;;;;;;4969291;28;20039;-35
2022/09/12 00:43:50;;;;;;;13.52;10.75;;;16.30;99.90;;;;;;4970558;28;20050;-35
2022/09/12 00:46:34;;;;;;;15.57;9.52;;;16.30;99.90;;;;;;4968011;28;20042;-36
2022/09/12 00:49:34;;;;;;;13.77;9.85;;;16.30;99.90;;;;;;4969050;28;20129;-35
2022/09/12 00:52:07;;;;;;;13.50;10.43;;;16.20;99.90;;;;;;4963102;28;20043;-36
2022/09/12 00:54:42;;;;;;;15.75;11.13;;;16.10;99.90;;;;;;4954233;28;20054;-35
2022/09/12 00:57:09;;;;;;;11.60;10.20;;;16.10;99.90;;;;;;4971485;28;20047;-34
2022/09/12 00:59:42;;;;;;;15.35;11.82;;;16.10;99.90;;;;;;4970067;28;20097;-36
2022/09/12 01:02:08;;;;;;;13.50;11.30;;;16.10;99.90;;;;;;4967074;28;20042;-36
2022/09/12 01:04:36;;;;;;;13.52;10.68;;;16.10;99.90;;;;;;4966692;28;20481;-36
2022/09/12 01:07:04;;;;;;;14.50;11.50;;;16.00;99.90;;;;;;4969543;28;20500;-35
2022/09/12 01:09:30;;;;;;;13.82;10.93;;;16.00;99.90;;;;;;4967973;28;20039;-35
2022/09/12 01:11:56;;;;;;;12.38;10.05;;;16.00;99.90;;;;;;4967805;28;20126;-36
2022/09/12 01:14:22;;;;;;;10.00;8.02;;;16.00;99.90;;;;;;4969125;28;20051;-35
2022/09/12 01:16:49;;;;;;;13.80;10.57;;;15.90;99.90;;;;;;4966337;28;20090;-35
2022/09/12 01:19:46;;;;;;;14.23;11.25;;;15.90;99.90;;;;;;4969398;28;20042;-35
2022/09/12 01:22:27;;;;;;;13.10;10.10;;;15.90;99.90;;;;;;4966272;28;20042;-35
2022/09/12 01:25:00;;;;;;;15.88;11.15;;;15.90;99.90;;;;;;4969001;28;20054;-36
2022/09/12 01:27:50;;;;;;;16.20;12.25;;;15.90;99.90;;;;;;4968253;28;20512;-35
2022/09/12 01:30:44;;;;;;;14.50;11.13;;;15.80;99.90;;;;;;4967378;28;20058;-35
2022/09/12 01:33:16;;;;;;;14.27;11.15;;;15.80;99.90;;;;;;4967804;28;20043;-35
2022/09/12 01:36:00;;;;;;;12.52;10.27;;;15.80;99.90;;;;;;4954512;28;20058;-35
2022/09/12 01:38:45;;;;;;;14.48;11.20;;;15.80;99.90;;;;;;4967873;28;20518;-36
2022/09/12 01:41:13;;;;;;;13.95;11.27;;;15.80;99.90;;;;;;4968937;28;20047;-36
2022/09/12 01:44:11;;;;;;;14.55;10.55;;;15.80;99.90;;;;;;4968786;28;20046;-35
2022/09/12 01:46:54;;;;;;;14.15;10.63;;;15.70;99.90;;;;;;4967933;28;20054;-36
2022/09/12 01:49:32;;;;;;;13.57;10.32;;;15.70;99.90;;;;;;4964260;28;20546;-36
2022/09/12 01:51:57;;;;;;;15.05;11.38;;;15.70;99.90;;;;;;4967380;28;20082;-35
2022/09/12 01:54:31;;;;;;;14.70;11.52;;;15.70;99.90;;;;;;4968998;28;20089;-35
2022/09/12 01:57:00;;;;;;;13.07;9.75;;;15.70;99.90;;;;;;4968713;28;20070;-35
2022/09/12 01:59:33;;;;;;;14.57;10.82;;;15.60;99.90;;;;;;4967458;28;20492;-35
2022/09/12 02:02:06;;;;;;;13.90;10.65;;;15.60;99.90;;;;;;4968332;28;20085;-35
2022/09/12 02:04:37;;;;;;;;;;;15.60;99.90;;;;;;4967508;28;20042;-36
2022/09/12 02:07:13;;;;;;;11.13;8.05;;;15.60;99.90;;;;;;4967894;28;20000;-35
2022/09/12 02:09:47;;;;;;;15.73;11.60;;;15.50;99.90;;;;;;4969455;28;20074;-36
2022/09/12 02:12:17;;;;;;;14.43;11.38;;;15.50;99.90;;;;;;4965885;28;20121;-36
2022/09/12 02:14:50;;;;;;;12.95;10.38;;;15.50;99.90;;;;;;4969250;28;20519;-34
2022/09/12 02:17:20;;;;;;;16.42;12.18;;;15.40;99.90;;;;;;4968544;28;20034;-40
2022/09/12 02:20:04;;;;;;;15.30;11.40;;;15.40;99.90;;;;;;4968319;28;20117;-34
2022/09/12 02:22:34;;;;;;;14.95;11.07;;;15.40;99.90;;;;;;4967622;28;20157;-35
2022/09/12 02:25:01;;;;;;;15.95;12.27;;;15.40;99.90;;;;;;4968362;28;20049;-35
2022/09/12 02:27:36;;;;;;;14.20;11.15;;;15.40;99.90;;;;;;4969003;28;20039;-35
2022/09/12 02:30:07;;;;;;;13.05;9.05;;;15.40;99.90;;;;;;4966907;28;20118;-35
2022/09/12 02:32:59;;;;;;;16.52;12.63;;;15.40;99.90;;;;;;4968838;28;20178;-35
2022/09/12 02:35:56;;;;;;;13.35;10.82;;;15.40;99.90;;;;;;4967190;28;20080;-35
2022/09/12 02:38:45;;;;;;;16.95;12.40;;;15.40;99.90;;;;;;4967651;28;20058;-34
2022/09/12 02:41:19;;;;;;;16.20;11.98;;;15.40;99.90;;;;;;4967208;28;20051;-35
2022/09/12 02:43:47;;;;;;;14.38;10.45;;;15.30;99.90;;;;;;4967353;28;20564;-35
2022/09/12 02:46:40;;;;;;;16.75;12.10;;;15.30;99.90;;;;;;4969464;28;20137;-36
2022/09/12 02:49:06;;;;;;;15.80;12.40;;;15.30;99.90;;;;;;4960665;28;20079;-35
2022/09/12 02:51:31;;;;;;;18.40;13.27;;;15.30;99.90;;;;;;4969139;28;20526;-36
2022/09/12 02:53:58;;;;;;;15.23;11.15;;;15.30;99.90;;;;;;4967179;28;20043;-36
2022/09/12 02:56:27;;;;;;;17.17;12.30;;;15.30;99.90;;;;;;4966537;28;20204;-35
2022/09/12 02:58:57;;;;;;;14.60;10.35;;;15.30;99.90;;;;;;4966130;28;20043;-35
2022/09/12 03:01:48;;;;;;;17.25;11.32;;;15.30;99.90;;;;;;4969351;28;20130;-35
2022/09/12 03:04:43;;;;;;;19.05;13.20;;;15.20;99.90;;;;;;4967288;28;20035;-44
2022/09/12 03:07:21;;;;;;;14.43;10.55;;;15.20;99.90;;;;;;4966539;28;20063;-35
2022/09/12 03:10:00;;;;;;;18.55;13.45;;;15.10;99.90;;;;;;4967255;28;20045;-34
2022/09/12 03:13:13;;;;;;;17.70;11.88;;;15.10;99.90;;;;;;4966569;28;20046;-35
2022/09/12 03:16:50;;;;;;;16.60;12.15;;;15.10;99.90;;;;;;4913198;28;20070;-35
2022/09/12 03:19:27;;;;;;;16.42;11.15;;;15.10;99.90;;;;;;4897376;29;20074;-36
2022/09/12 03:22:14;;;;;;;16.23;10.60;;;15.10;99.90;;;;;;4929789;29;20036;-35
2022/09/12 03:25:03;;;;;;;17.45;11.75;;;15.00;99.90;;;;;;4965978;28;20138;-35
2022/09/12 03:27:35;;;;;;;16.08;11.40;;;15.00;99.90;;;;;;4968793;28;20046;-35
2022/09/12 03:30:02;;;;;;;19.08;12.00;;;15.00;99.90;;;;;;4970779;28;20618;-35
2022/09/12 03:32:49;;;;;;;19.13;12.63;;;15.00;99.90;;;;;;4971021;28;20047;-35
2022/09/12 03:35:17;;;;;;;17.98;13.25;;;15.00;99.90;;;;;;4972646;28;20057;-35
2022/09/12 03:37:43;;;;;;;18.67;12.82;;;15.00;99.90;;;;;;4973730;28;20173;-35
2022/09/12 03:40:10;;;;;;;17.10;12.27;;;15.00;99.90;;;;;;4973717;28;20059;-36
2022/09/12 03:42:36;;;;;;;17.30;12.48;;;14.90;99.90;;;;;;4973018;28;20045;-35
2022/09/12 03:45:03;;;;;;;17.92;11.88;;;14.90;99.90;;;;;;4970895;28;20064;-36
2022/09/12 03:47:29;;;;;;;20.60;13.50;;;14.90;99.90;;;;;;4971974;28;20053;-34
2022/09/12 03:49:55;;;;;;;18.38;13.60;;;14.80;99.90;;;;;;4970376;28;20042;-35
2022/09/12 03:52:21;;;;;;;19.05;13.38;;;14.80;99.90;;;;;;4971099;28;20047;-35
2022/09/12 03:54:47;;;;;;;17.65;12.48;;;14.80;99.90;;;;;;4972240;28;20042;-34
2022/09/12 03:57:13;;;;;;;14.90;10.98;;;14.80;99.90;;;;;;4971743;28;20039;-35
2022/09/12 03:59:38;;;;;;;19.10;12.43;;;14.80;99.90;;;;;;4971080;28;20046;-35
2022/09/12 04:02:04;;;;;;;18.38;13.23;;;14.80;99.90;;;;;;4972113;28;20405;-36
2022/09/12 04:04:30;;;;;;;18.20;13.63;;;14.80;99.90;;;;;;4973692;28;20034;-35
2022/09/12 04:06:56;;;;;;;19.25;13.60;;;14.70;99.90;;;;;;4971094;28;20401;-36
2022/09/12 04:09:22;;;;;;;23.95;14.65;;;14.70;99.90;;;;;;4971339;28;20185;-35
2022/09/12 04:11:47;;;;;;;19.02;13.73;;;14.70;99.90;;;;;;4972046;28;20783;-35
2022/09/12 04:14:13;;;;;;;18.80;13.60;;;14.70;99.90;;;;;;4969036;28;20042;-35
2022/09/12 04:16:40;;;;;;;19.15;13.60;;;14.70;99.90;;;;;;4973187;28;20042;-36
2022/09/12 04:19:05;;;;;;;20.02;13.18;;;14.60;99.90;;;;;;4975350;28;20049;-35
2022/09/12 04:21:31;;;;;;;16.90;11.75;;;14.60;99.90;;;;;;4973004;28;20431;-35
2022/09/12 04:23:57;;;;;;;19.85;13.20;;;14.60;99.90;;;;;;4977775;28;20042;-35
2022/09/12 04:26:22;;;;;;;16.25;11.68;;;14.60;99.90;;;;;;4972196;28;20038;-35
2022/09/12 04:28:53;;;;;;;20.38;13.48;;;14.60;99.90;;;;;;4969433;28;20499;-36
2022/09/12 04:31:22;;;;;;;21.00;13.77;;;14.60;99.90;;;;;;4972935;28;20035;-35
2022/09/12 04:33:56;;;;;;;17.90;12.90;;;14.60;99.90;;;;;;4975208;28;20463;-36
2022/09/12 04:36:23;;;;;;;20.90;13.15;;;14.60;99.90;;;;;;4972488;28;20061;-35
2022/09/12 04:38:49;;;;;;;19.23;12.98;;;14.60;99.90;;;;;;4976849;28;20039;-36
2022/09/12 04:41:16;;;;;;;21.25;13.73;;;14.60;99.90;;;;;;4976988;28;20034;-34
2022/09/12 04:43:47;;;;;;;22.00;13.52;;;14.60;99.90;;;;;;4971990;28;20440;-35
2022/09/12 04:46:15;;;;;;;16.88;12.43;;;14.60;99.90;;;;;;4968937;28;20134;-35
2022/09/12 04:48:41;;;;;;;23.17;13.18;;;14.60;99.90;;;;;;4971869;28;20165;-36
2022/09/12 04:51:15;;;;;;;24.95;15.15;;;14.60;99.90;;;;;;4975869;28;20053;-38
2022/09/12 04:53:42;;;;;;;25.15;14.18;;;14.50;99.90;;;;;;4978340;28;20039;-37
2022/09/12 04:56:10;;;;;;;23.05;14.52;;;14.50;99.90;;;;;;4975903;28;20034;-36
2022/09/12 04:58:37;;;;;;;23.65;15.18;;;14.50;99.90;;;;;;4970491;28;20165;-35
2022/09/12 05:01:11;;;;;;;23.55;14.45;;;14.50;99.90;;;;;;4972513;28;20524;-37
2022/09/12 05:03:42;;;;;;;20.23;13.27;;;14.50;99.90;;;;;;4972501;28;20039;-36
2022/09/12 05:06:11;;;;;;;19.85;13.07;;;14.50;99.90;;;;;;4972004;28;20173;-36
2022/09/12 05:08:37;;;;;;;23.85;16.05;;;14.50;99.90;;;;;;4971490;28;20035;-35
2022/09/12 05:11:12;;;;;;;23.77;13.50;;;14.50;99.90;;;;;;4966335;28;20418;-36
2022/09/12 05:13:38;;;;;;;24.85;14.75;;;14.60;99.90;;;;;;4968564;28;20081;-35
2022/09/12 05:16:05;;;;;;;24.27;14.98;;;14.60;99.90;;;;;;4971030;28;20419;-35
2022/09/12 05:18:32;;;;;;;25.13;15.82;;;14.60;99.90;;;;;;4967758;28;20039;-35
2022/09/12 05:20:59;;;;;;;22.50;14.77;;;14.60;99.90;;;;;;4967828;28;20047;-36
2022/09/12 05:23:26;;;;;;;25.52;15.13;;;14.60;99.90;;;;;;4970756;28;20047;-35
2022/09/12 05:25:54;;;;;;;27.80;16.40;;;14.60;99.90;;;;;;4967555;28;20441;-35
2022/09/12 05:28:21;;;;;;;23.83;15.65;;;14.70;99.90;;;;;;4967548;28;20074;-35
2022/09/12 05:30:47;;;;;;;25.45;16.13;;;14.70;99.90;;;;;;4963800;28;20035;-36
2022/09/12 05:33:14;;;;;;;24.63;14.52;;;14.70;99.90;;;;;;4968740;28;20393;-35
2022/09/12 05:35:40;;;;;;;24.65;14.77;;;14.70;99.90;;;;;;4969019;28;20100;-36
2022/09/12 05:38:06;;;;;;;26.13;14.80;;;14.80;99.90;;;;;;4968035;28;20483;-35
2022/09/12 05:40:33;;;;;;;26.02;15.48;;;14.70;99.90;;;;;;4970707;28;20385;-35
2022/09/12 05:42:59;;;;;;;23.08;14.07;;;14.80;99.90;;;;;;4968437;28;20047;-35
2022/09/12 05:45:25;;;;;;;23.05;14.35;;;14.80;99.90;;;;;;4967954;28;20047;-34
2022/09/12 05:47:55;;;;;;;25.20;15.60;;;14.80;99.90;;;;;;4964118;28;20385;-35
2022/09/12 05:50:21;;;;;;;21.15;13.45;;;14.80;99.90;;;;;;4964290;28;20050;-35
2022/09/12 05:52:46;;;;;;;23.20;13.52;;;14.90;99.90;;;;;;4969765;28;20042;-35
2022/09/12 05:55:13;;;;;;;23.10;14.10;;;14.90;99.90;;;;;;4966162;28;20213;-36
2022/09/12 05:57:38;;;;;;;25.00;14.85;;;14.90;99.90;;;;;;4966513;28;20053;-36
2022/09/12 06:00:07;;;;;;;24.02;14.50;;;14.90;99.90;;;;;;4970502;28;20408;-36
2022/09/12 06:02:33;;;;;;;25.13;13.70;;;14.90;99.90;;;;;;4969893;28;20602;-35
2022/09/12 06:04:58;;;;;;;23.17;15.20;;;14.90;99.90;;;;;;4969669;28;20129;-37
2022/09/12 06:07:25;;;;;;;24.05;13.85;;;15.00;99.90;;;;;;4967616;28;20496;-36
2022/09/12 06:09:50;;;;;;;27.05;15.18;;;15.00;99.90;;;;;;4971570;28;20038;-36
2022/09/12 06:12:16;;;;;;;23.77;15.45;;;15.00;99.90;;;;;;4966598;28;20101;-36
2022/09/12 06:14:42;;;;;;;26.00;16.63;;;15.00;99.90;;;;;;4971753;28;20034;-35
2022/09/12 06:17:08;;;;;;;23.88;14.65;;;15.00;99.90;;;;;;4971540;28;20130;-40
2022/09/12 06:19:33;;;;;;;27.83;16.27;;;15.00;99.90;;;;;;4963699;28;20035;-36
2022/09/12 06:21:59;;;;;;;26.73;15.50;;;15.00;99.90;;;;;;4966618;28;20035;-36
2022/09/12 06:24:24;;;;;;;31.63;17.17;;;15.10;99.90;;;;;;4960194;28;20038;-38
2022/09/12 06:26:51;;;;;;;27.63;16.65;;;15.10;99.90;;;;;;4966628;28;20046;-36
2022/09/12 06:29:18;;;;;;;27.13;16.40;;;15.10;99.90;;;;;;4963749;28;20042;-36
2022/09/12 06:31:44;;;;;;;27.05;15.85;;;15.20;99.90;;;;;;4968589;28;20046;-35
2022/09/12 06:34:12;;;;;;;25.25;14.88;;;15.20;99.90;;;;;;4965017;28;20137;-36
2022/09/12 06:36:41;;;;;;;29.00;17.02;;;15.20;99.90;;;;;;4962839;28;20047;-36
2022/09/12 06:39:12;;;;;;;25.02;15.43;;;15.30;99.90;;;;;;4969438;28;20078;-35
2022/09/12 06:41:38;;;;;;;29.73;17.42;;;15.30;99.90;;;;;;4972704;28;20043;-35
2022/09/12 06:44:05;;;;;;;27.60;16.80;;;15.30;99.90;;;;;;4969781;28;20035;-35
2022/09/12 06:46:31;;;;;;;25.77;15.93;;;15.40;99.90;;;;;;4965642;28;20246;-36
2022/09/12 06:48:59;;;;;;;23.17;14.10;;;15.40;99.90;;;;;;4972579;28;20129;-35
2022/09/12 06:51:26;;;;;;;27.33;16.73;;;15.40;99.90;;;;;;4964530;28;20434;-36
2022/09/12 06:53:55;;;;;;;28.65;16.25;;;15.50;99.90;;;;;;4960066;28;20077;-36
2022/09/12 06:56:23;;;;;;;35.70;18.73;;;15.50;99.90;;;;;;4969790;28;20050;-35
2022/09/12 06:58:50;;;;;;;30.20;17.52;;;15.50;99.90;;;;;;4966596;28;20105;-36
2022/09/12 07:01:24;;;;;;;29.67;17.45;;;15.50;99.90;;;;;;4966478;28;20121;-36
2022/09/12 07:04:01;;;;;;;28.02;17.95;;;15.50;99.90;;;;;;4969760;28;20503;-35
2022/09/12 07:06:32;;;;;;;27.58;15.48;;;15.60;99.90;;;;;;4971599;28;20085;-36
2022/09/12 07:08:59;;;;;;;28.90;16.52;;;15.60;99.90;;;;;;4970426;28;20034;-35
2022/09/12 07:11:30;;;;;;;29.38;17.20;;;15.60;99.90;;;;;;4968386;28;20057;-36
2022/09/12 07:13:57;;;;;;;29.75;17.35;;;15.60;99.90;;;;;;4969295;28;20039;-36
2022/09/12 07:16:23;;;;;;;27.73;17.50;;;15.70;99.90;;;;;;4969975;28;21365;-36
2022/09/12 07:18:51;;;;;;;27.08;15.40;;;15.70;99.90;;;;;;4970012;28;20261;-35
2022/09/12 07:21:17;;;;;;;28.42;17.55;;;15.70;99.90;;;;;;4971432;28;20039;-36
2022/09/12 07:23:43;;;;;;;29.48;17.27;;;15.80;99.90;;;;;;4971268;28;20456;-35
2022/09/12 07:26:10;;;;;;;33.05;19.13;;;15.80;99.90;;;;;;4966050;28;20149;-36
2022/09/12 07:28:37;;;;;;;36.25;19.25;;;15.90;99.90;;;;;;4964933;28;20668;-37
2022/09/12 07:31:07;;;;;;;28.50;17.23;;;15.90;99.90;;;;;;4967999;28;20159;-35
2022/09/12 07:33:33;;;;;;;32.47;17.48;;;16.00;99.90;;;;;;4968016;28;20047;-35
2022/09/12 07:36:04;;;;;;;33.75;18.95;;;16.00;99.90;;;;;;4973836;28;20519;-35
2022/09/12 07:38:30;;;;;;;27.52;17.40;;;16.10;99.90;;;;;;4970548;28;20035;-36
2022/09/12 07:40:56;;;;;;;33.70;19.38;;;16.10;99.90;;;;;;4971327;28;20046;-35
2022/09/12 07:43:22;;;;;;;30.60;18.85;;;16.10;99.90;;;;;;4969620;28;20035;-35
2022/09/12 07:45:53;;;;;;;30.60;18.52;;;16.10;99.90;;;;;;4969552;28;20031;-35
2022/09/12 07:48:18;;;;;;;29.58;17.15;;;16.20;99.90;;;;;;4969314;28;20049;-42
2022/09/12 07:50:44;;;;;;;27.63;16.48;;;16.20;99.90;;;;;;4967634;28;20034;-35
2022/09/12 07:53:10;;;;;;;33.42;18.83;;;16.20;99.90;;;;;;4968973;28;20412;-36
2022/09/12 07:55:36;;;;;;;31.73;17.85;;;16.30;99.90;;;;;;4966890;28;20126;-36
2022/09/12 07:58:02;;;;;;;31.40;16.98;;;16.40;99.90;;;;;;4969622;28;20043;-36
2022/09/12 08:00:34;;;;;;;35.50;19.50;;;16.50;99.90;;;;;;4970603;28;20519;-36
2022/09/12 08:03:01;;;;;;;32.33;18.67;;;16.60;99.90;;;;;;4971519;28;20144;-36
2022/09/12 08:05:28;;;;;;;35.80;18.48;;;16.70;99.90;;;;;;4964701;28;20523;-36
2022/09/12 08:07:54;;;;;;;33.10;20.08;;;16.80;99.90;;;;;;4966690;28;20515;-36
2022/09/12 08:10:20;;;;;;;31.63;18.80;;;16.90;99.90;;;;;;4965375;28;20055;-35
2022/09/12 08:12:45;;;;;;;30.00;18.13;;;17.00;99.90;;;;;;4972283;28;20196;-36
2022/09/12 08:15:11;;;;;;;26.85;16.90;;;17.10;99.90;;;;;;4953504;28;20387;-36
2022/09/12 08:17:37;;;;;;;31.02;19.33;;;17.20;99.90;;;;;;4969702;28;20039;-36
2022/09/12 08:20:03;;;;;;;33.53;19.42;;;17.40;99.90;;;;;;4967736;28;20382;-36
2022/09/12 08:22:30;;;;;;;28.00;17.42;;;17.40;99.90;;;;;;4967664;28;20504;-36
2022/09/12 08:24:56;;;;;;;32.42;18.27;;;17.50;99.90;;;;;;4967440;28;20038;-34
2022/09/12 08:27:21;;;;;;;29.35;18.33;;;17.60;99.90;;;;;;4975789;28;20043;-35
2022/09/12 08:29:47;;;;;;;30.65;18.88;;;17.70;99.90;;;;;;4968951;28;20030;-35
2022/09/12 08:32:12;;;;;;;30.70;18.38;;;17.80;99.90;;;;;;4972920;28;20047;-37
2022/09/12 08:34:38;;;;;;;32.10;18.55;;;17.90;99.90;;;;;;4970291;28;20515;-36
2022/09/12 08:37:04;;;;;;;28.63;18.13;;;17.90;99.90;;;;;;4968526;28;20442;-36
2022/09/12 08:39:31;;;;;;;30.52;17.35;;;17.90;99.90;;;;;;4969801;28;20788;-35
2022/09/12 08:42:00;;;;;;;29.70;17.13;;;17.90;99.90;;;;;;4970138;28;20089;-36
2022/09/12 08:45:09;;;;;;;30.13;18.45;;;18.00;99.90;;;;;;4964766;28;20079;-36
2022/09/12 08:47:38;;;;;;;30.48;18.08;;;18.20;99.90;;;;;;4970162;28;20572;-36
2022/09/12 08:50:07;;;;;;;32.55;19.55;;;18.30;99.90;;;;;;4970960;28;20445;-35
2022/09/12 08:52:51;;;;;;;33.22;19.95;;;18.40;99.90;;;;;;4971038;28;20403;-35
2022/09/12 08:55:40;;;;;;;28.52;16.80;;;18.40;99.90;;;;;;4969049;28;20050;-35
2022/09/12 08:58:34;;;;;;;31.58;19.77;;;18.50;99.90;;;;;;4969479;28;20054;-35
2022/09/12 09:01:17;;;;;;;28.52;18.52;;;18.60;99.90;;;;;;4968489;28;20061;-36
2022/09/12 09:04:03;;;;;;;32.30;19.25;;;18.70;99.90;;;;;;4968505;28;20042;-35
2022/09/12 09:07:10;;;;;;;33.05;19.50;;;18.60;99.90;;;;;;4970363;28;20042;-35
2022/09/12 09:09:59;;;;;;;34.00;19.88;;;18.70;99.90;;;;;;4968496;28;20043;-35
2022/09/12 09:12:50;;;;;;;31.45;20.20;;;18.70;99.90;;;;;;4970731;28;20043;-36
2022/09/12 09:15:24;;;;;;;33.90;20.00;;;18.80;99.90;;;;;;4968325;28;20480;-35
2022/09/12 09:18:12;;;;;;;29.92;18.88;;;18.90;99.90;;;;;;4969383;28;20512;-35
2022/09/12 09:21:08;;;;;;;26.88;16.77;;;19.00;99.90;;;;;;4968830;28;20089;-37
2022/09/12 09:23:48;;;;;;;30.23;19.95;;;19.10;99.90;;;;;;4969877;28;20043;-35
2022/09/12 09:26:34;;;;;;;29.98;18.95;;;19.20;99.90;;;;;;4968151;28;20121;-36
2022/09/12 09:29:44;;;;;;;28.55;18.38;;;19.20;99.90;;;;;;4970256;28;20043;-36
2022/09/12 09:32:17;;;;;;;28.95;17.20;;;19.30;99.90;;;;;;4968031;28;20034;-36
2022/09/12 09:34:42;;;;;;;33.85;19.75;;;19.30;99.90;;;;;;4971825;28;20088;-36
2022/09/12 09:37:14;;;;;;;30.70;17.98;;;19.50;99.90;;;;;;4970835;28;20046;-36
2022/09/12 09:39:58;;;;;;;29.90;18.70;;;19.60;99.90;;;;;;4970664;28;20074;-36
2022/09/12 09:42:44;;;;;;;26.17;17.02;;;19.70;99.90;;;;;;4971019;28;20039;-36
2022/09/12 09:45:17;;;;;;;32.08;19.60;;;19.90;99.90;;;;;;4965088;28;20038;-35
2022/09/12 09:48:14;;;;;;;30.08;18.02;;;20.10;99.90;;;;;;4970600;28;20057;-36
2022/09/12 09:50:40;;;;;;;31.17;19.17;;;20.20;99.90;;;;;;4967697;28;20047;-36
2022/09/12 09:53:33;;;;;;;28.40;18.13;;;20.30;99.90;;;;;;4962058;28;20038;-35
2022/09/12 09:56:04;;;;;;;22.67;16.02;;;20.30;99.90;;;;;;4968006;28;20069;-37
2022/09/12 09:58:34;;;;;;;28.92;19.17;;;20.40;99.90;;;;;;4969651;28;20049;-37
2022/09/12 10:01:11;;;;;;;27.80;18.30;;;20.50;99.90;;;;;;4964090;28;20050;-36
2022/09/12 10:03:38;;;;;;;24.63;17.98;;;20.70;99.90;;;;;;4965504;28;20061;-37
2022/09/12 10:06:31;;;;;;;25.40;17.77;;;20.70;99.90;;;;;;4967769;28;20046;-39
2022/09/12 10:09:18;;;;;;;24.27;15.82;;;20.90;99.90;;;;;;4967231;28;20441;-36
2022/09/12 10:11:45;;;;;;;26.00;16.92;;;21.00;99.90;;;;;;4971544;28;20051;-35
2022/09/12 10:14:33;;;;;;;27.88;17.95;;;21.20;99.90;;;;;;4965887;28;20051;-36
2022/09/12 10:17:03;;;;;;;26.00;17.10;;;21.30;99.90;;;;;;4971311;28;20078;-35
2022/09/12 10:19:39;;;;;;;27.27;17.33;;;21.30;99.90;;;;;;4947269;28;20077;-39
2022/09/12 10:22:06;;;;;;;24.50;16.17;;;21.40;99.90;;;;;;4968028;28;20046;-35
2022/09/12 10:24:34;;;;;;;23.85;16.23;;;21.40;99.90;;;;;;4969429;28;20396;-35
2022/09/12 10:27:14;;;;;;;26.13;15.68;;;21.40;99.70;;;;;;4968890;28;20038;-35
2022/09/12 10:29:46;;;;;;;21.80;15.10;;;21.50;99.10;;;;;;4966042;28;20488;-35
2022/09/12 10:32:17;;;;;;;;;;;21.70;98.20;;;;;;4967059;28;20043;-36
2022/09/12 10:34:45;;;;;;;25.73;16.25;;;21.70;95.60;;;;;;4968437;28;19926;-35
2022/09/12 10:37:38;;;;;;;23.27;15.63;;;21.70;98.30;;;;;;4959328;28;20645;-36
2022/09/12 10:40:08;;;;;;;21.80;14.38;;;21.80;97.80;;;;;;4965981;28;20493;-36
2022/09/12 10:42:52;;;;;;;22.08;13.02;;;22.00;97.20;;;;;;4966692;28;20126;-35
2022/09/12 10:45:25;;;;;;;22.10;14.20;;;22.10;95.90;;;;;;4968077;28;20053;-35
2022/09/12 10:47:53;;;;;;;17.52;12.48;;;22.10;95.50;;;;;;4967643;28;20074;-35
2022/09/12 10:50:28;;;;;;;20.55;12.63;;;22.10;95.00;;;;;;4968896;28;20607;-35
2022/09/12 10:53:13;;;;;;;19.55;13.25;;;22.20;94.20;;;;;;4968167;28;20038;-35
2022/09/12 10:55:47;;;;;;;17.05;10.73;;;22.30;94.10;;;;;;4975294;28;20054;-36
2022/09/12 10:58:17;;;;;;;16.60;12.27;;;22.40;93.80;;;;;;4967667;28;20039;-36
2022/09/12 11:00:49;;;;;;;17.92;11.68;;;22.60;92.70;;;;;;4968220;28;20213;-35
2022/09/12 11:03:47;;;;;;;13.85;10.23;;;22.60;92.50;;;;;;4970794;28;20433;-37
2022/09/12 11:06:19;;;;;;;17.60;10.95;;;22.80;91.80;;;;;;4966314;28;20151;-35
2022/09/12 11:08:58;;;;;;;18.85;11.30;;;23.00;91.20;;;;;;4963237;28;20122;-35
2022/09/12 11:11:48;;;;;;;18.33;10.90;;;23.20;90.70;;;;;;4966456;28;20062;-35
2022/09/12 11:14:29;;;;;;;17.45;10.68;;;23.30;89.80;;;;;;4964288;28;20046;-44
2022/09/12 11:17:06;;;;;;;14.60;10.20;;;23.20;88.90;;;;;;4966025;28;20050;-36
2022/09/12 11:20:13;;;;;;;15.98;11.27;;;23.20;88.90;;;;;;4965585;28;20416;-36
2022/09/12 11:23:04;;;;;;;17.60;11.35;;;23.20;89.60;;;;;;4936216;28;20116;-36
2022/09/12 11:25:46;;;;;;;16.33;10.85;;;23.10;89.10;;;;;;4937392;28;20183;-35
2022/09/12 11:28:30;;;;;;;16.58;11.07;;;23.20;88.60;;;;;;4965354;28;20039;-35
2022/09/12 11:31:15;;;;;;;14.77;11.10;;;23.20;87.10;;;;;;4963663;28;20047;-37
2022/09/12 11:34:01;;;;;;;13.20;9.48;;;23.10;87.70;;;;;;4965640;28;20050;-36
2022/09/12 11:37:16;;;;;;;15.50;9.82;;;23.10;87.60;;;;;;4965617;28;20047;-37
2022/09/12 11:39:45;;;;;;;13.57;9.32;;;23.20;87.60;;;;;;4927697;28;20061;-37
2022/09/12 11:42:16;;;;;;;15.20;10.35;;;23.60;88.30;;;;;;4966667;28;20044;-38
2022/09/12 11:44:46;;;;;;;17.83;11.33;;;23.80;86.20;;;;;;4967353;28;20117;-38
2022/09/12 11:47:13;;;;;;;15.32;10.05;;;23.90;85.30;;;;;;4965315;28;20357;-37
2022/09/12 11:50:02;;;;;;;18.92;11.25;;;24.00;85.70;;;;;;4966090;28;20503;-37
2022/09/12 11:52:36;;;;;;;17.95;10.07;;;24.20;83.30;;;;;;4967521;28;20030;-39
2022/09/12 11:55:07;;;;;;;13.60;10.00;;;24.20;83.10;;;;;;4967047;28;20137;-38
2022/09/12 11:57:55;;;;;;;14.35;9.95;;;24.30;82.50;;;;;;4971422;28;20058;-38
2022/09/12 12:00:36;;;;;;;13.63;10.23;;;24.30;82.00;;;;;;4966245;28;20062;-37
2022/09/12 12:03:05;;;;;;;13.90;8.60;;;24.40;82.20;;;;;;4968938;28;20074;-37
2022/09/12 12:05:43;;;;;;;14.32;9.52;;;24.50;82.50;;;;;;4968280;28;20047;-38
2022/09/12 12:08:11;;;;;;;13.75;9.25;;;24.60;81.00;;;;;;4966136;28;20097;-37
2022/09/12 12:10:55;;;;;;;11.77;8.55;;;24.70;81.40;;;;;;4969082;28;20563;-38
2022/09/12 12:13:35;;;;;;;12.15;8.20;;;24.80;80.00;;;;;;4952764;28;20066;-39
2022/09/12 12:16:20;;;;;;;11.60;8.80;;;24.90;79.90;;;;;;4967030;28;20050;-37
2022/09/12 12:18:54;;;;;;;14.85;9.63;;;25.00;78.20;;;;;;4969753;28;20082;-39
2022/09/12 12:21:41;;;;;;;11.70;8.57;;;25.30;78.00;;;;;;4969656;28;20527;-37
2022/09/12 12:24:07;;;;;;;13.38;7.90;;;25.30;76.70;;;;;;4968711;28;20057;-39
2022/09/12 12:26:41;;;;;;;12.25;8.45;;;25.20;76.60;;;;;;4972751;28;20034;-38
2022/09/12 12:29:16;;;;;;;11.32;8.20;;;25.10;76.80;;;;;;4969261;28;20043;-37
2022/09/12 12:32:03;;;;;;;11.15;8.05;;;25.30;76.00;;;;;;4970734;28;20118;-38
2022/09/12 12:34:35;;;;;;;11.93;7.68;;;25.50;76.30;;;;;;4969862;28;20053;-38
2022/09/12 12:37:19;;;;;;;11.00;8.05;;;25.70;73.80;;;;;;4970631;28;20582;-38
2022/09/12 12:39:49;;;;;;;11.43;8.68;;;25.90;71.70;;;;;;4968679;28;20181;-39
2022/09/12 12:42:43;;;;;;;10.70;7.82;;;26.10;72.80;;;;;;4972087;28;20070;-38
2022/09/12 12:45:08;;;;;;;12.35;8.07;;;26.40;69.70;;;;;;4950416;28;20059;-38
2022/09/12 12:47:37;;;;;;;10.65;7.70;;;26.80;69.00;;;;;;4970771;28;20571;-38
2022/09/12 12:50:25;;;;;;;11.40;7.25;;;27.10;65.30;;;;;;4967776;28;21377;-38
2022/09/12 12:52:53;;;;;;;10.32;6.35;;;27.30;64.00;;;;;;4965907;28;20150;-37
2022/09/12 12:55:25;;;;;;;11.32;7.40;;;27.70;61.20;;;;;;4968618;28;20043;-38
2022/09/12 12:58:29;;;;;;;11.40;8.52;;;27.90;56.80;;;;;;4969520;28;20045;-39
2022/09/12 13:01:04;;;;;;;9.88;7.88;;;27.60;57.30;;;;;;4961626;28;20054;-38